createdAt,value
2023-04-15T00:02:36.689Z,99820.16
2023-04-15T00:05:34.523Z,99880.31
2023-04-15T00:08:01.735Z,99885.53
2023-04-15T00:10:28.823Z,99853.63
2023-04-15T00:12:55.809Z,99816.22
2023-04-15T00:15:22.764Z,99869.88
2023-04-15T00:17:52.209Z,99881.34
2023-04-15T00:20:39.534Z,99839.25
2023-04-15T00:23:40.511Z,99872.84
2023-04-15T00:26:21.106Z,99845.44
2023-04-15T00:28:50.038Z,99813.69
2023-04-15T00:31:17.154Z,99876.38
2023-04-15T00:33:44.762Z,99864.19
2023-04-15T00:36:11.713Z,99809.16
2023-04-15T00:38:38.614Z,99818.94
2023-04-15T00:41:05.530Z,99817.16
2023-04-15T00:43:32.736Z,99866.66
2023-04-15T00:46:01.079Z,99689.19
2023-04-15T00:48:28.512Z,99763.53
2023-04-15T00:50:55.590Z,99833.47
2023-04-15T00:53:23.012Z,99862.50
2023-04-15T00:55:50.312Z,99833.88
2023-04-15T00:58:17.723Z,99842.41
2023-04-15T01:00:45.057Z,99830.69
2023-04-15T01:03:12.169Z,99755.31
2023-04-15T01:05:39.432Z,99826.19
2023-04-15T01:08:06.835Z,99768.28
2023-04-15T01:10:33.806Z,99832.72
2023-04-15T01:13:01.325Z,99860.88
2023-04-15T01:15:28.304Z,99851.34
2023-04-15T01:17:55.344Z,99850.34
2023-04-15T01:20:43.573Z,99864.22
2023-04-15T01:23:45.543Z,99830.09
2023-04-15T01:26:26.463Z,99793.38
2023-04-15T01:28:53.323Z,99822.28
2023-04-15T01:31:21.235Z,99835.13
2023-04-15T01:33:48.543Z,99852.22
2023-04-15T01:36:34.458Z,99870.09
2023-04-15T01:39:01.715Z,99788.28
2023-04-15T01:41:29.133Z,99799.56
2023-04-15T01:43:56.049Z,99859.38
2023-04-15T01:46:23.303Z,99869.88
2023-04-15T01:48:50.315Z,99786.97
2023-04-15T01:51:17.629Z,99771.97
2023-04-15T01:53:44.731Z,99763.13
2023-04-15T01:56:11.961Z,99872.72
2023-04-15T01:58:40.533Z,99868.53
2023-04-15T02:01:07.912Z,99810.28
2023-04-15T02:03:35.118Z,99849.16
2023-04-15T02:06:02.596Z,99854.88
2023-04-15T02:08:29.824Z,99692.09
2023-04-15T02:10:56.920Z,99873.81
2023-04-15T02:13:25.494Z,99774.56
2023-04-15T02:15:53.096Z,99802.84
2023-04-15T02:18:40.582Z,99814.03
2023-04-15T02:21:41.582Z,99851.97
2023-04-15T02:24:44.674Z,99883.06
2023-04-15T02:27:19.469Z,99862.91
2023-04-15T02:29:46.575Z,99846.56
2023-04-15T02:32:14.113Z,99814.16
2023-04-15T02:34:42.896Z,99888.38
2023-04-15T02:37:11.431Z,99860.25
2023-04-15T02:39:38.991Z,99868.09
2023-04-15T02:42:06.320Z,99878.81
2023-04-15T02:44:35.313Z,99885.16
2023-04-15T02:47:06.174Z,99802.69
2023-04-15T02:49:33.956Z,99853.44
2023-04-15T02:52:01.058Z,99791.03
2023-04-15T02:54:31.048Z,99866.28
2023-04-15T02:56:58.157Z,99856.09
2023-04-15T02:59:25.440Z,99790.88
2023-04-15T03:01:52.498Z,99801.84
2023-04-15T03:04:19.720Z,99796.72
2023-04-15T03:06:46.963Z,99892.56
2023-04-15T03:09:13.996Z,99891.44
2023-04-15T03:11:42.208Z,99822.16
2023-04-15T03:14:10.089Z,99813.28
2023-04-15T03:16:41.355Z,99804.78
2023-04-15T03:19:08.593Z,99789.31
2023-04-15T03:21:55.678Z,99853.44
2023-04-15T03:24:56.662Z,99821.31
2023-04-15T03:27:38.496Z,99911.06
2023-04-15T03:30:07.821Z,99794.94
2023-04-15T03:32:37.256Z,99878.19
2023-04-15T03:35:06.592Z,99887.06
2023-04-15T03:37:33.511Z,99904.53
2023-04-15T03:40:00.642Z,99863.00
2023-04-15T03:42:27.548Z,99885.53
2023-04-15T03:44:54.631Z,99900.59
2023-04-15T03:47:21.720Z,99855.22
2023-04-15T03:49:48.722Z,99827.22
2023-04-15T03:52:15.690Z,99880.38
2023-04-15T03:54:42.588Z,99863.34
2023-04-15T03:57:09.590Z,99796.06
2023-04-15T03:59:36.503Z,99897.66
2023-04-15T04:02:03.513Z,99897.19
2023-04-15T04:04:30.723Z,99922.63
2023-04-15T04:06:57.697Z,99886.16
2023-04-15T04:09:24.819Z,99856.03
2023-04-15T04:11:52.070Z,99804.63
2023-04-15T04:14:19.089Z,99917.47
2023-04-15T04:16:46.049Z,99916.31
2023-04-15T04:19:21.692Z,99817.25
2023-04-15T04:22:22.641Z,99906.75
2023-04-15T04:25:23.717Z,99938.72
2023-04-15T04:28:04.550Z,99915.22
2023-04-15T04:30:31.696Z,99908.56
2023-04-15T04:32:58.829Z,99909.28
2023-04-15T04:35:25.911Z,99944.91
2023-04-15T04:37:53.841Z,99878.81
2023-04-15T04:40:20.847Z,99860.59
2023-04-15T04:42:47.791Z,99873.81
2023-04-15T04:45:15.211Z,99929.97
2023-04-15T04:47:42.298Z,99841.72
2023-04-15T04:50:10.603Z,99944.88
2023-04-15T04:52:38.208Z,99972.44
2023-04-15T04:55:05.987Z,99903.00
2023-04-15T04:57:32.930Z,99962.31
2023-04-15T04:59:59.842Z,99866.03
2023-04-15T05:02:27.799Z,99975.69
2023-04-15T05:04:54.967Z,99911.50
2023-04-15T05:07:22.229Z,99941.13
2023-04-15T05:09:49.272Z,99935.03
2023-04-15T05:12:16.250Z,99894.72
2023-04-15T05:14:43.221Z,99938.63
2023-04-15T05:17:11.232Z,99945.19
2023-04-15T05:19:58.692Z,99931.41
2023-04-15T05:22:59.705Z,99941.28
2023-04-15T05:26:00.683Z,99933.31
2023-04-15T05:29:02.014Z,99973.50
2023-04-15T05:31:50.701Z,99951.31
2023-04-15T05:34:34.403Z,100016.19
2023-04-15T05:37:02.432Z,99893.72
2023-04-15T05:39:29.477Z,99943.50
2023-04-15T05:41:57.716Z,100002.16
2023-04-15T05:44:24.672Z,99930.09
2023-04-15T05:46:51.669Z,99950.44
2023-04-15T05:49:18.526Z,99944.88
2023-04-15T05:51:47.457Z,99972.09
2023-04-15T05:54:14.351Z,99995.06
2023-04-15T05:56:41.252Z,99963.84
2023-04-15T05:59:08.737Z,99967.19
2023-04-15T06:01:35.715Z,99945.78
2023-04-15T06:04:03.108Z,100010.00
2023-04-15T06:06:30.210Z,100011.19
2023-04-15T06:08:57.569Z,99970.44
2023-04-15T06:11:24.830Z,100049.81
2023-04-15T06:13:51.690Z,100039.66
2023-04-15T06:16:38.926Z,100023.22
2023-04-15T06:19:19.610Z,99998.94
2023-04-15T06:22:06.730Z,100024.41
2023-04-15T06:25:07.693Z,100020.91
2023-04-15T06:27:48.467Z,99957.25
2023-04-15T06:30:15.359Z,99950.75
2023-04-15T06:33:03.065Z,100035.28
2023-04-15T06:35:43.318Z,100024.22
2023-04-15T06:38:10.862Z,100053.41
2023-04-15T06:40:57.728Z,100031.28
2023-04-15T06:43:39.229Z,100007.38
2023-04-15T06:46:06.451Z,99952.59
2023-04-15T06:48:33.404Z,99947.50
2023-04-15T06:51:00.597Z,100033.66
2023-04-15T06:53:28.130Z,100039.81
2023-04-15T06:55:55.733Z,99971.50
2023-04-15T06:58:22.869Z,100013.66
2023-04-15T07:00:49.880Z,99906.47
2023-04-15T07:03:17.052Z,99996.81
2023-04-15T07:05:43.960Z,100070.94
2023-04-15T07:08:10.907Z,100060.31
2023-04-15T07:10:38.219Z,100026.00
2023-04-15T07:13:05.882Z,99973.09
2023-04-15T07:15:32.866Z,100043.97
2023-04-15T07:18:20.783Z,100061.47
2023-04-15T07:21:21.735Z,100009.81
2023-04-15T07:24:02.335Z,100026.84
2023-04-15T07:26:29.323Z,100056.31
2023-04-15T07:28:56.409Z,99945.16
2023-04-15T07:31:23.639Z,99911.31
2023-04-15T07:33:52.133Z,99849.69
2023-04-15T07:36:25.932Z,100003.50
2023-04-15T07:38:53.906Z,99748.75
2023-04-15T07:41:40.765Z,99922.03
2023-04-15T07:44:41.804Z,99993.50
2023-04-15T07:47:42.830Z,100006.00
2023-04-15T07:50:43.780Z,100008.28
2023-04-15T07:53:44.923Z,99982.94
2023-04-15T07:56:45.754Z,99995.06
2023-04-15T07:59:27.796Z,100010.25
2023-04-15T08:01:55.322Z,99888.91
2023-04-15T08:04:22.678Z,100028.38
2023-04-15T08:06:50.475Z,99963.47
2023-04-15T08:09:30.821Z,100023.22
2023-04-15T08:12:13.538Z,99954.63
2023-04-15T08:14:40.796Z,100004.53
2023-04-15T08:17:07.874Z,100020.41
2023-04-15T08:19:54.816Z,99973.28
2023-04-15T08:22:58.776Z,100025.41
2023-04-15T08:25:39.432Z,100021.91
2023-04-15T08:28:07.500Z,100027.88
2023-04-15T08:30:34.714Z,100040.66
2023-04-15T08:33:21.834Z,100030.47
2023-04-15T08:36:02.626Z,99953.16
2023-04-15T08:38:29.757Z,99863.22
2023-04-15T08:41:25.902Z,99924.81
2023-04-15T08:44:11.043Z,100046.44
2023-04-15T08:46:40.128Z,99854.03
2023-04-15T08:49:11.036Z,100043.88
2023-04-15T08:51:57.824Z,100026.28
2023-04-15T08:54:58.812Z,99994.66
2023-04-15T08:57:40.034Z,100012.22
2023-04-15T09:00:10.189Z,99942.84
2023-04-15T09:02:37.647Z,99983.25
2023-04-15T09:05:07.228Z,99770.72
2023-04-15T09:07:36.553Z,100021.69
2023-04-15T09:10:04.624Z,99999.75
2023-04-15T09:12:36.255Z,100006.91
2023-04-15T09:15:22.875Z,99936.31
2023-04-15T09:18:16.077Z,99982.06
2023-04-15T09:21:08.656Z,100021.00
2023-04-15T09:24:14.910Z,99983.13
2023-04-15T09:26:58.354Z,100014.84
2023-04-15T09:29:28.615Z,99992.91
2023-04-15T09:31:55.878Z,99972.69
2023-04-15T09:34:36.240Z,100015.59
2023-04-15T09:37:04.540Z,99973.56
2023-04-15T09:39:51.459Z,100013.13
2023-04-15T09:42:24.766Z,100023.66
2023-04-15T09:44:53.154Z,99984.13
2023-04-15T09:47:41.844Z,99984.09
2023-04-15T09:50:42.847Z,99982.19
2023-04-15T09:53:24.620Z,99996.28
2023-04-15T09:56:15.873Z,100002.34
2023-04-15T09:59:16.942Z,99901.44
2023-04-15T10:01:59.603Z,99992.00
2023-04-15T10:04:28.740Z,99940.16
2023-04-15T10:06:57.172Z,99995.53
2023-04-15T10:09:24.951Z,99734.66
2023-04-15T10:11:52.966Z,99675.97
2023-04-15T10:14:21.146Z,99869.91
2023-04-15T10:17:10.867Z,99979.53
2023-04-15T10:20:13.874Z,99941.03
2023-04-15T10:23:15.910Z,99974.41
2023-04-15T10:25:59.083Z,99973.53
2023-04-15T10:28:29.055Z,99981.44
2023-04-15T10:30:57.627Z,99933.16
2023-04-15T10:33:26.165Z,99935.75
2023-04-15T10:35:55.887Z,99661.94
2023-04-15T10:38:40.807Z,99981.47
2023-04-15T10:41:22.063Z,99660.19
2023-04-15T10:43:54.995Z,99912.91
2023-04-15T10:46:38.858Z,99689.88
2023-04-15T10:49:17.699Z,99680.34
2023-04-15T10:51:53.541Z,99760.91
2023-04-15T10:54:25.471Z,99957.75
2023-04-15T10:57:14.826Z,99961.25
2023-04-15T11:00:01.283Z,99959.47
2023-04-15T11:03:07.734Z,99956.88
2023-04-15T11:05:39.848Z,99968.28
2023-04-15T11:08:07.043Z,99940.03
2023-04-15T11:10:33.997Z,99958.31
2023-04-15T11:13:04.350Z,99880.78
2023-04-15T11:15:56.048Z,99947.53
2023-04-15T11:19:07.893Z,99910.09
2023-04-15T11:22:08.926Z,99903.66
2023-04-15T11:24:53.214Z,99911.50
2023-04-15T11:27:26.399Z,99853.66
2023-04-15T11:29:53.622Z,99900.28
2023-04-15T11:32:22.125Z,99924.56
2023-04-15T11:34:49.948Z,99815.75
2023-04-15T11:37:17.293Z,99829.03
2023-04-15T11:40:05.003Z,99891.19
2023-04-15T11:42:49.432Z,99902.38
2023-04-15T11:45:17.832Z,99925.91
2023-04-15T11:47:45.050Z,99908.00
2023-04-15T11:50:33.908Z,99915.16
2023-04-15T11:53:14.842Z,99896.94
2023-04-15T11:55:53.837Z,99899.19
2023-04-15T11:58:23.894Z,99841.88
2023-04-15T12:00:55.511Z,99872.72
2023-04-15T12:03:28.624Z,99867.66
2023-04-15T12:06:24.920Z,99920.56
2023-04-15T12:09:07.637Z,99934.69
2023-04-15T12:11:43.956Z,99922.53
2023-04-15T12:14:20.218Z,99916.22
2023-04-15T12:16:54.259Z,99880.97
2023-04-15T12:19:38.961Z,99923.59
2023-04-15T12:22:40.967Z,99827.09
2023-04-15T12:25:49.000Z,99919.88
2023-04-15T12:28:45.942Z,99890.97
2023-04-15T12:31:26.569Z,99836.88
2023-04-15T12:33:56.729Z,99915.13
2023-04-15T12:36:24.173Z,99901.53
2023-04-15T12:38:51.344Z,99792.75
2023-04-15T12:41:41.054Z,99765.19
2023-04-15T12:44:24.097Z,99928.78
2023-04-15T12:46:53.619Z,99894.03
2023-04-15T12:49:21.971Z,99887.28
2023-04-15T12:51:50.465Z,99916.19
2023-04-15T12:54:18.594Z,99920.03
2023-04-15T12:56:47.204Z,99902.19
2023-04-15T12:59:34.007Z,99930.56
2023-04-15T13:02:15.900Z,99901.31
2023-04-15T13:04:43.150Z,99863.22
2023-04-15T13:07:30.328Z,99906.06
2023-04-15T13:10:11.918Z,99912.91
2023-04-15T13:12:53.991Z,99924.81
2023-04-15T13:15:34.852Z,99858.59
2023-04-15T13:18:02.095Z,99872.00
2023-04-15T13:24:05.498Z,99900.84
2023-04-15T13:26:45.984Z,99864.47
2023-04-15T13:29:33.032Z,99926.13
2023-04-15T13:32:13.856Z,99909.13
2023-04-15T13:34:41.508Z,99876.50
2023-04-15T13:37:16.203Z,99730.94
2023-04-15T13:39:44.041Z,99719.59
2023-04-15T13:42:11.793Z,99802.81
2023-04-15T13:44:59.113Z,99731.75
2023-04-15T13:47:41.476Z,99913.34
2023-04-15T13:50:09.002Z,99892.50
2023-04-15T13:52:40.180Z,99878.41
2023-04-15T13:55:21.852Z,99901.91
2023-04-15T13:57:50.689Z,99901.00
2023-04-15T14:00:18.262Z,99828.44
2023-04-15T14:02:47.194Z,99837.31
2023-04-15T14:05:34.051Z,99898.44
2023-04-15T14:08:36.980Z,99909.47
2023-04-15T14:11:26.491Z,99842.94
2023-04-15T14:13:53.640Z,99833.22
2023-04-15T14:16:20.885Z,99779.78
2023-04-15T14:18:48.368Z,99727.50
2023-04-15T14:21:37.008Z,99895.00
2023-04-15T14:24:48.067Z,99884.03
2023-04-15T14:27:29.361Z,99908.91
2023-04-15T14:29:58.058Z,99924.06
2023-04-15T14:32:45.143Z,99907.09
2023-04-15T14:35:48.547Z,99907.09
2023-04-15T14:38:38.519Z,99906.28
2023-04-15T14:41:12.813Z,99935.31
2023-04-15T14:43:40.494Z,99887.03
2023-04-15T14:46:28.384Z,99902.81
2023-04-15T14:49:29.058Z,99928.38
2023-04-15T14:52:13.423Z,99908.16
2023-04-15T14:55:08.174Z,99873.13
2023-04-15T14:57:49.890Z,99915.00
2023-04-15T15:00:20.076Z,99947.56
2023-04-15T15:02:49.796Z,99791.28
2023-04-15T15:05:17.905Z,99758.22
2023-04-15T15:11:31.870Z,99722.00
2023-04-15T15:14:47.214Z,99938.88
2023-04-15T15:17:23.727Z,99697.25
2023-04-15T15:20:56.151Z,99942.31
2023-04-15T15:24:45.053Z,99980.81
2023-04-15T15:27:47.452Z,99635.25
2023-04-15T15:30:19.509Z,99831.91
2023-04-15T15:32:49.175Z,99813.25
2023-04-15T15:35:42.769Z,99882.75
2023-04-15T15:40:00.316Z,99957.19
2023-04-15T15:42:40.851Z,99886.09
2023-04-15T15:45:08.189Z,99916.69
2023-04-15T15:47:38.861Z,99872.22
2023-04-15T15:50:07.019Z,99862.63
2023-04-15T15:52:37.784Z,99843.16
2023-04-15T15:55:26.332Z,99974.84
2023-04-15T15:58:07.151Z,99980.34
2023-04-15T16:00:39.674Z,99934.75
2023-04-15T16:03:08.097Z,99981.25
2023-04-15T16:05:36.956Z,99703.13
2023-04-15T16:08:24.222Z,99966.28
2023-04-15T16:11:05.013Z,99967.25
2023-04-15T16:13:35.824Z,99868.91
2023-04-15T16:18:49.465Z,99976.06
2023-04-15T16:21:36.142Z,99890.06
2023-04-15T16:24:37.152Z,100015.59
2023-04-15T16:27:50.244Z,99991.84
2023-04-15T16:30:41.719Z,99939.16
2023-04-15T16:33:11.256Z,99969.75
2023-04-15T16:35:38.671Z,99931.19
2023-04-15T16:38:06.736Z,99811.03
2023-04-15T16:40:34.108Z,99935.69
2023-04-15T16:43:01.702Z,99697.88
2023-04-15T16:45:29.805Z,99943.53
2023-04-15T16:47:57.384Z,99811.94
2023-04-15T16:50:24.801Z,99869.84
2023-04-15T16:52:53.126Z,99922.44
2023-04-15T16:55:20.726Z,99840.91
2023-04-15T16:58:00.722Z,99899.66
2023-04-15T17:00:28.865Z,100019.00
2023-04-15T17:02:56.251Z,99984.81
2023-04-15T17:05:23.548Z,100012.03
2023-04-15T17:07:50.819Z,100021.72
2023-04-15T17:10:18.105Z,99921.59
2023-04-15T17:12:45.149Z,100036.75
2023-04-15T17:15:12.197Z,100035.84
2023-04-15T17:17:43.552Z,100042.13
2023-04-15T17:20:31.157Z,100022.78
2023-04-15T17:23:32.225Z,99997.25
2023-04-15T17:26:25.975Z,100050.91
2023-04-15T17:28:54.555Z,100050.06
2023-04-15T17:31:27.069Z,100064.06
2023-04-15T17:34:15.882Z,100071.09
2023-04-15T17:37:03.686Z,100091.22
2023-04-15T17:39:50.632Z,100087.69
2023-04-15T17:42:37.572Z,100006.63
2023-04-15T17:45:24.581Z,100092.75
2023-04-15T17:48:11.640Z,100128.78
2023-04-15T17:50:58.561Z,100121.63
2023-04-15T17:53:45.473Z,100011.09
2023-04-15T17:56:33.872Z,100005.31
2023-04-15T17:59:41.174Z,100117.41
2023-04-15T18:02:41.870Z,100116.38
2023-04-15T18:05:29.782Z,100160.75
2023-04-15T18:08:16.701Z,100104.03
2023-04-15T18:11:03.613Z,100117.09
2023-04-15T18:13:50.663Z,100148.78
2023-04-15T18:16:40.223Z,100189.94
2023-04-15T18:19:27.467Z,100133.34
2023-04-15T18:22:14.179Z,100177.34
2023-04-15T18:25:15.218Z,100198.22
2023-04-15T18:28:09.253Z,100151.75
2023-04-15T18:30:49.738Z,100155.66
2023-04-15T18:33:16.846Z,100184.81
2023-04-15T18:35:44.479Z,100169.81
2023-04-15T18:38:11.629Z,100147.34
2023-04-15T18:40:39.348Z,99908.19
2023-04-15T18:43:06.918Z,100201.25
2023-04-15T18:45:34.321Z,100145.56
2023-04-15T18:48:03.052Z,100224.59
2023-04-15T18:50:30.132Z,100180.75
2023-04-15T18:53:17.249Z,100188.41
2023-04-15T18:56:18.252Z,100233.34
2023-04-15T18:59:28.912Z,100228.97
2023-04-15T19:01:59.756Z,100274.84
2023-04-15T19:04:29.500Z,100284.41
2023-04-15T19:07:19.375Z,100284.50
2023-04-15T19:10:21.001Z,100241.84
2023-04-15T19:13:03.233Z,100204.16
2023-04-15T19:15:32.269Z,100248.59
2023-04-15T19:17:59.482Z,100208.13
2023-04-15T19:20:47.440Z,100290.47
2023-04-15T19:23:27.985Z,100284.06
2023-04-15T19:25:55.169Z,100313.03
2023-04-15T19:28:22.796Z,100214.28
2023-04-15T19:30:49.888Z,100285.94
2023-04-15T19:33:17.164Z,100310.56
2023-04-15T19:35:44.213Z,100275.13
2023-04-15T19:38:12.221Z,100250.38
2023-04-15T19:40:39.194Z,100327.34
2023-04-15T19:43:09.922Z,100329.69
2023-04-15T19:45:38.133Z,100281.31
2023-04-15T19:48:06.995Z,100265.41
2023-04-15T19:50:37.287Z,100250.88
2023-04-15T19:53:18.574Z,100225.59
2023-04-15T19:56:19.511Z,100359.22
2023-04-15T19:59:19.566Z,100348.22
2023-04-15T20:01:50.231Z,100369.25
2023-04-15T20:04:21.093Z,100339.44
2023-04-15T20:07:08.413Z,100349.19
2023-04-15T20:09:49.186Z,100211.09
2023-04-15T20:12:51.498Z,100343.09
2023-04-15T20:15:10.760Z,100331.38
2023-04-15T20:17:38.228Z,100090.63
2023-04-15T20:20:25.308Z,100318.41
2023-04-15T20:23:12.796Z,100385.75
2023-04-15T20:25:41.124Z,100214.34
2023-04-15T20:28:14.865Z,100306.00
2023-04-15T20:30:45.523Z,100283.97
2023-04-15T20:33:14.683Z,100339.66
2023-04-15T20:35:47.590Z,100218.88
2023-04-15T20:38:17.116Z,100121.03
2023-04-15T20:40:44.216Z,100322.13
2023-04-15T20:43:11.776Z,100421.38
2023-04-15T20:45:39.217Z,100393.16
2023-04-15T20:48:06.572Z,100339.56
2023-04-15T20:50:33.744Z,100427.94
2023-04-15T20:53:21.337Z,100379.28
2023-04-15T20:56:22.347Z,100422.47
2023-04-15T20:59:16.664Z,100425.72
2023-04-15T21:01:43.687Z,100384.91
2023-04-15T21:04:31.352Z,100405.44
2023-04-15T21:07:32.261Z,100387.38
2023-04-15T21:10:12.886Z,100441.03
2023-04-15T21:12:41.177Z,100409.06
2023-04-15T21:15:09.093Z,100455.31
2023-04-15T21:17:36.145Z,100449.31
2023-04-15T21:20:23.309Z,100461.81
2023-04-15T21:23:10.805Z,100408.44
2023-04-15T21:25:38.815Z,100481.00
2023-04-15T21:28:05.917Z,100407.13
2023-04-15T21:30:32.946Z,100474.97
2023-04-15T21:32:59.985Z,100402.34
2023-04-15T21:35:28.803Z,100301.06
2023-04-15T21:37:56.131Z,100321.59
2023-04-15T21:40:23.317Z,100333.59
2023-04-15T21:43:10.325Z,100442.84
2023-04-15T21:46:21.159Z,100452.75
2023-04-15T21:48:37.713Z,100515.97
2023-04-15T21:51:05.000Z,100469.22
2023-04-15T21:53:32.085Z,100482.63
2023-04-15T21:55:59.151Z,100389.00
2023-04-15T21:58:26.308Z,100460.72
2023-04-15T22:00:57.520Z,100520.72
2023-04-15T22:03:24.764Z,100517.16
2023-04-15T22:05:51.853Z,100478.09
2023-04-15T22:08:18.934Z,100445.41
2023-04-15T22:10:46.763Z,100514.53
2023-04-15T22:13:14.449Z,100478.09
2023-04-15T22:15:42.198Z,100463.09
2023-04-15T22:18:09.436Z,100543.78
2023-04-15T22:20:49.502Z,100477.38
2023-04-15T22:23:43.342Z,100464.09
2023-04-15T22:26:24.302Z,100532.63
2023-04-15T22:28:51.730Z,100448.16
2023-04-15T22:31:18.676Z,100504.06
2023-04-15T22:33:45.684Z,100503.91
2023-04-15T22:36:13.673Z,100541.00
2023-04-15T22:38:40.868Z,100528.56
2023-04-15T22:41:07.994Z,100531.19
2023-04-15T22:43:34.990Z,100519.03
2023-04-15T22:46:02.380Z,100502.69
2023-04-15T22:48:29.453Z,100565.75
2023-04-15T22:50:56.887Z,100538.25
2023-04-15T22:53:44.358Z,100586.72
2023-04-15T22:56:25.154Z,100519.50
2023-04-15T22:58:52.284Z,100528.59
2023-04-15T23:01:20.800Z,100550.91
2023-04-15T23:04:03.458Z,100526.66
2023-04-15T23:06:37.452Z,100595.72
2023-04-15T23:09:04.600Z,100510.31
2023-04-15T23:11:31.799Z,100521.22
2023-04-15T23:13:58.804Z,100531.66
2023-04-15T23:16:26.163Z,100583.09
2023-04-15T23:18:53.197Z,100593.78
2023-04-15T23:21:40.379Z,100589.19
2023-04-15T23:24:41.353Z,100601.56
2023-04-15T23:27:22.926Z,100602.84
2023-04-15T23:29:49.889Z,100379.59
2023-04-15T23:32:16.956Z,100475.41
2023-04-15T23:34:43.933Z,100533.84
2023-04-15T23:37:11.498Z,100596.78
2023-04-15T23:39:38.496Z,100577.34
2023-04-15T23:42:25.437Z,100569.97
2023-04-15T23:45:06.718Z,100592.91
2023-04-15T23:47:33.681Z,100525.47
2023-04-15T23:50:00.719Z,100539.22
2023-04-15T23:52:27.916Z,100613.25
2023-04-15T23:54:54.858Z,100549.31
2023-04-15T23:57:21.915Z,100594.78
2023-04-15T23:59:48.857Z,100593.22
